sensor_id;sensor_type;location;lat;lon;timestamp;P1;durP1;ratioP1;P2;durP2;ratioP2
8777;SDS011;4425;50.872;4.712;2023-06-22T00:01:13;9.27;;;8.00;;
8777;SDS011;4425;50.872;4.712;2023-06-22T00:03:40;7.90;;;7.07;;
8777;SDS011;4425;50.872;4.712;2023-06-22T00:06:07;8.43;;;7.60;;
8777;SDS011;4425;50.872;4.712;2023-06-22T00:08:34;8.23;;;7.43;;
8777;SDS011;4425;50.872;4.712;2023-06-22T00:11:01;8.35;;;7.35;;
8777;SDS011;4425;50.872;4.712;2023-06-22T00:13:28;7.78;;;7.07;;
8777;SDS011;4425;50.872;4.712;2023-06-22T00:15:55;8.65;;;7.35;;
8777;SDS011;4425;50.872;4.712;2023-06-22T00:18:23;8.48;;;7.30;;
8777;SDS011;4425;50.872;4.712;2023-06-22T00:20:53;9.50;;;7.20;;
8777;SDS011;4425;50.872;4.712;2023-06-22T00:23:23;8.57;;;6.63;;
8777;SDS011;4425;50.872;4.712;2023-06-22T00:25:50;8.15;;;7.35;;
8777;SDS011;4425;50.872;4.712;2023-06-22T00:28:17;8.45;;;7.63;;
8777;SDS011;4425;50.872;4.712;2023-06-22T00:30:44;7.50;;;6.82;;
8777;SDS011;4425;50.872;4.712;2023-06-22T00:33:11;7.85;;;7.03;;
8777;SDS011;4425;50.872;4.712;2023-06-22T00:35:39;7.78;;;7.05;;
8777;SDS011;4425;50.872;4.712;2023-06-22T00:38:07;8.15;;;7.20;;
8777;SDS011;4425;50.872;4.712;2023-06-22T00:40:34;7.63;;;6.97;;
8777;SDS011;4425;50.872;4.712;2023-06-22T00:43:00;8.50;;;7.43;;
8777;SDS011;4425;50.872;4.712;2023-06-22T00:45:27;9.05;;;6.90;;
8777;SDS011;4425;50.872;4.712;2023-06-22T00:47:55;6.85;;;6.35;;
8777;SDS011;4425;50.872;4.712;2023-06-22T00:50:24;11.00;;;6.95;;
8777;SDS011;4425;50.872;4.712;2023-06-22T00:52:55;9.15;;;7.38;;
8777;SDS011;4425;50.872;4.712;2023-06-22T00:55:23;9.13;;;6.82;;
8777;SDS011;4425;50.872;4.712;2023-06-22T00:57:51;8.32;;;7.20;;
8777;SDS011;4425;50.872;4.712;2023-06-22T01:00:21;7.07;;;6.57;;
8777;SDS011;4425;50.872;4.712;2023-06-22T01:02:50;7.60;;;6.90;;
8777;SDS011;4425;50.872;4.712;2023-06-22T01:05:18;7.00;;;6.40;;
8777;SDS011;4425;50.872;4.712;2023-06-22T01:07:48;8.77;;;7.13;;
8777;SDS011;4425;50.872;4.712;2023-06-22T01:10:28;7.93;;;7.22;;
8777;SDS011;4425;50.872;4.712;2023-06-22T01:13:01;8.15;;;7.00;;
8777;SDS011;4425;50.872;4.712;2023-06-22T01:15:30;7.25;;;6.63;;
8777;SDS011;4425;50.872;4.712;2023-06-22T01:18:02;8.38;;;7.13;;
8777;SDS011;4425;50.872;4.712;2023-06-22T01:20:31;7.85;;;6.57;;
8777;SDS011;4425;50.872;4.712;2023-06-22T01:23:07;7.72;;;7.00;;
8777;SDS011;4425;50.872;4.712;2023-06-22T01:25:43;7.30;;;6.70;;
8777;SDS011;4425;50.872;4.712;2023-06-22T01:28:19;7.80;;;7.10;;
8777;SDS011;4425;50.872;4.712;2023-06-22T01:31:04;7.63;;;6.93;;
8777;SDS011;4425;50.872;4.712;2023-06-22T01:33:34;8.70;;;7.10;;
8777;SDS011;4425;50.872;4.712;2023-06-22T01:36:03;8.32;;;7.53;;
8777;SDS011;4425;50.872;4.712;2023-06-22T01:38:32;8.25;;;7.45;;
8777;SDS011;4425;50.872;4.712;2023-06-22T01:41:00;7.40;;;6.68;;
8777;SDS011;4425;50.872;4.712;2023-06-22T01:43:28;7.82;;;6.95;;
8777;SDS011;4425;50.872;4.712;2023-06-22T01:46:00;8.20;;;7.40;;
8777;SDS011;4425;50.872;4.712;2023-06-22T01:48:28;7.05;;;6.45;;
8777;SDS011;4425;50.872;4.712;2023-06-22T01:50:55;8.38;;;7.13;;
8777;SDS011;4425;50.872;4.712;2023-06-22T01:53:23;9.57;;;7.40;;
8777;SDS011;4425;50.872;4.712;2023-06-22T01:55:51;7.43;;;6.90;;
8777;SDS011;4425;50.872;4.712;2023-06-22T01:58:18;8.88;;;7.22;;
8777;SDS011;4425;50.872;4.712;2023-06-22T02:00:51;7.88;;;7.10;;
8777;SDS011;4425;50.872;4.712;2023-06-22T02:03:26;9.95;;;6.82;;
8777;SDS011;4425;50.872;4.712;2023-06-22T02:05:56;8.32;;;7.45;;
8777;SDS011;4425;50.872;4.712;2023-06-22T02:08:30;8.38;;;7.57;;
8777;SDS011;4425;50.872;4.712;2023-06-22T02:11:01;8.40;;;7.60;;
8777;SDS011;4425;50.872;4.712;2023-06-22T02:13:30;10.23;;;6.95;;
8777;SDS011;4425;50.872;4.712;2023-06-22T02:15:58;10.30;;;7.75;;
8777;SDS011;4425;50.872;4.712;2023-06-22T02:18:27;7.75;;;6.95;;
8777;SDS011;4425;50.872;4.712;2023-06-22T02:20:54;7.50;;;6.53;;
8777;SDS011;4425;50.872;4.712;2023-06-22T02:23:21;9.90;;;7.10;;
8777;SDS011;4425;50.872;4.712;2023-06-22T02:25:48;7.25;;;6.55;;
8777;SDS011;4425;50.872;4.712;2023-06-22T02:28:15;9.40;;;7.32;;
8777;SDS011;4425;50.872;4.712;2023-06-22T02:30:42;11.20;;;7.03;;
8777;SDS011;4425;50.872;4.712;2023-06-22T02:33:09;8.13;;;7.25;;
8777;SDS011;4425;50.872;4.712;2023-06-22T02:35:38;8.05;;;7.22;;
8777;SDS011;4425;50.872;4.712;2023-06-22T02:38:05;7.40;;;6.68;;
8777;SDS011;4425;50.872;4.712;2023-06-22T02:40:33;7.68;;;6.97;;
8777;SDS011;4425;50.872;4.712;2023-06-22T02:43:00;8.23;;;6.93;;
8777;SDS011;4425;50.872;4.712;2023-06-22T02:45:27;7.63;;;6.90;;
8777;SDS011;4425;50.872;4.712;2023-06-22T02:47:55;7.65;;;7.05;;
8777;SDS011;4425;50.872;4.712;2023-06-22T02:50:22;8.43;;;7.50;;
8777;SDS011;4425;50.872;4.712;2023-06-22T02:52:50;7.93;;;7.22;;
8777;SDS011;4425;50.872;4.712;2023-06-22T02:55:17;8.25;;;7.35;;
8777;SDS011;4425;50.872;4.712;2023-06-22T02:57:44;8.60;;;6.70;;
8777;SDS011;4425;50.872;4.712;2023-06-22T03:00:13;7.90;;;7.18;;
8777;SDS011;4425;50.872;4.712;2023-06-22T03:02:42;8.30;;;7.60;;
8777;SDS011;4425;50.872;4.712;2023-06-22T03:05:10;8.40;;;7.60;;
8777;SDS011;4425;50.872;4.712;2023-06-22T03:07:39;8.27;;;7.40;;
8777;SDS011;4425;50.872;4.712;2023-06-22T03:10:09;10.25;;;8.32;;
8777;SDS011;4425;50.872;4.712;2023-06-22T03:12:36;10.38;;;8.52;;
8777;SDS011;4425;50.872;4.712;2023-06-22T03:15:04;9.77;;;7.60;;
8777;SDS011;4425;50.872;4.712;2023-06-22T03:17:33;8.38;;;7.57;;
8777;SDS011;4425;50.872;4.712;2023-06-22T03:20:00;8.27;;;7.47;;
8777;SDS011;4425;50.872;4.712;2023-06-22T03:22:29;8.88;;;7.97;;
8777;SDS011;4425;50.872;4.712;2023-06-22T03:24:56;9.07;;;8.18;;
8777;SDS011;4425;50.872;4.712;2023-06-22T03:27:24;8.52;;;7.72;;
8777;SDS011;4425;50.872;4.712;2023-06-22T03:29:51;8.45;;;7.50;;
8777;SDS011;4425;50.872;4.712;2023-06-22T03:32:18;9.52;;;8.23;;
8777;SDS011;4425;50.872;4.712;2023-06-22T03:34:45;8.93;;;8.02;;
8777;SDS011;4425;50.872;4.712;2023-06-22T03:37:12;9.15;;;8.20;;
8777;SDS011;4425;50.872;4.712;2023-06-22T03:39:40;9.35;;;8.30;;
8777;SDS011;4425;50.872;4.712;2023-06-22T03:42:07;9.02;;;8.13;;
8777;SDS011;4425;50.872;4.712;2023-06-22T03:44:35;9.35;;;8.20;;
8777;SDS011;4425;50.872;4.712;2023-06-22T03:47:02;8.70;;;7.82;;
8777;SDS011;4425;50.872;4.712;2023-06-22T03:49:32;11.93;;;7.90;;
8777;SDS011;4425;50.872;4.712;2023-06-22T03:51:59;9.75;;;7.90;;
8777;SDS011;4425;50.872;4.712;2023-06-22T03:54:27;9.73;;;8.43;;
8777;SDS011;4425;50.872;4.712;2023-06-22T03:56:54;8.30;;;7.55;;
8777;SDS011;4425;50.872;4.712;2023-06-22T03:59:22;9.18;;;8.25;;
8777;SDS011;4425;50.872;4.712;2023-06-22T04:01:50;9.57;;;8.68;;
8777;SDS011;4425;50.872;4.712;2023-06-22T04:04:17;8.98;;;8.15;;
8777;SDS011;4425;50.872;4.712;2023-06-22T04:06:44;11.77;;;8.93;;
8777;SDS011;4425;50.872;4.712;2023-06-22T04:09:11;9.38;;;8.52;;
8777;SDS011;4425;50.872;4.712;2023-06-22T04:11:38;10.32;;;8.35;;
8777;SDS011;4425;50.872;4.712;2023-06-22T04:14:05;8.82;;;8.13;;
8777;SDS011;4425;50.872;4.712;2023-06-22T04:16:32;11.52;;;9.38;;
8777;SDS011;4425;50.872;4.712;2023-06-22T04:19:01;9.27;;;8.38;;
8777;SDS011;4425;50.872;4.712;2023-06-22T04:21:27;11.00;;;9.32;;
8777;SDS011;4425;50.872;4.712;2023-06-22T04:23:54;10.98;;;9.73;;
8777;SDS011;4425;50.872;4.712;2023-06-22T04:26:21;10.50;;;9.50;;
8777;SDS011;4425;50.872;4.712;2023-06-22T04:28:48;11.27;;;10.10;;
8777;SDS011;4425;50.872;4.712;2023-06-22T04:31:16;11.43;;;9.88;;
8777;SDS011;4425;50.872;4.712;2023-06-22T04:33:43;11.15;;;10.00;;
8777;SDS011;4425;50.872;4.712;2023-06-22T04:36:11;11.73;;;10.43;;
8777;SDS011;4425;50.872;4.712;2023-06-22T04:38:40;13.90;;;10.15;;
8777;SDS011;4425;50.872;4.712;2023-06-22T04:41:07;14.10;;;10.48;;
8777;SDS011;4425;50.872;4.712;2023-06-22T04:43:48;12.25;;;10.05;;
8777;SDS011;4425;50.872;4.712;2023-06-22T04:46:19;12.20;;;10.73;;
8777;SDS011;4425;50.872;4.712;2023-06-22T04:48:45;11.90;;;10.75;;
8777;SDS011;4425;50.872;4.712;2023-06-22T04:51:14;11.40;;;10.30;;
8777;SDS011;4425;50.872;4.712;2023-06-22T04:53:41;33.58;;;13.52;;
8777;SDS011;4425;50.872;4.712;2023-06-22T04:56:08;13.98;;;10.98;;
8777;SDS011;4425;50.872;4.712;2023-06-22T04:58:34;12.48;;;11.27;;
8777;SDS011;4425;50.872;4.712;2023-06-22T05:01:01;12.73;;;11.15;;
8777;SDS011;4425;50.872;4.712;2023-06-22T05:03:28;12.82;;;10.65;;
8777;SDS011;4425;50.872;4.712;2023-06-22T05:05:55;11.45;;;10.35;;
8777;SDS011;4425;50.872;4.712;2023-06-22T05:08:24;15.52;;;11.60;;
8777;SDS011;4425;50.872;4.712;2023-06-22T05:10:51;13.90;;;11.15;;
8777;SDS011;4425;50.872;4.712;2023-06-22T05:13:18;13.50;;;11.10;;
8777;SDS011;4425;50.872;4.712;2023-06-22T05:15:46;12.00;;;10.88;;
8777;SDS011;4425;50.872;4.712;2023-06-22T05:18:13;18.00;;;11.43;;
8777;SDS011;4425;50.872;4.712;2023-06-22T05:20:40;13.48;;;11.18;;
8777;SDS011;4425;50.872;4.712;2023-06-22T05:23:07;13.75;;;10.90;;
8777;SDS011;4425;50.872;4.712;2023-06-22T05:25:36;14.25;;;11.80;;
8777;SDS011;4425;50.872;4.712;2023-06-22T05:28:02;13.32;;;11.98;;
8777;SDS011;4425;50.872;4.712;2023-06-22T05:30:36;16.08;;;11.50;;
8777;SDS011;4425;50.872;4.712;2023-06-22T05:33:03;12.93;;;11.43;;
8777;SDS011;4425;50.872;4.712;2023-06-22T05:35:30;14.43;;;12.93;;
8777;SDS011;4425;50.872;4.712;2023-06-22T05:37:57;20.98;;;12.50;;
8777;SDS011;4425;50.872;4.712;2023-06-22T05:40:24;15.00;;;12.23;;
8777;SDS011;4425;50.872;4.712;2023-06-22T05:42:53;14.77;;;10.63;;
8777;SDS011;4425;50.872;4.712;2023-06-22T05:45:20;17.30;;;11.02;;
8777;SDS011;4425;50.872;4.712;2023-06-22T05:47:47;14.25;;;11.10;;
8777;SDS011;4425;50.872;4.712;2023-06-22T05:50:14;18.95;;;10.70;;
8777;SDS011;4425;50.872;4.712;2023-06-22T05:52:42;29.23;;;11.15;;
8777;SDS011;4425;50.872;4.712;2023-06-22T05:55:08;14.10;;;11.18;;
8777;SDS011;4425;50.872;4.712;2023-06-22T05:57:35;12.52;;;10.60;;
8777;SDS011;4425;50.872;4.712;2023-06-22T06:00:04;44.72;;;12.82;;
8777;SDS011;4425;50.872;4.712;2023-06-22T06:02:35;19.05;;;11.13;;
8777;SDS011;4425;50.872;4.712;2023-06-22T06:05:06;16.30;;;11.82;;
8777;SDS011;4425;50.872;4.712;2023-06-22T06:07:33;15.98;;;11.95;;
8777;SDS011;4425;50.872;4.712;2023-06-22T06:10:00;12.52;;;11.32;;
8777;SDS011;4425;50.872;4.712;2023-06-22T06:12:27;19.83;;;11.57;;
8777;SDS011;4425;50.872;4.712;2023-06-22T06:14:54;16.90;;;11.77;;
8777;SDS011;4425;50.872;4.712;2023-06-22T06:17:23;16.40;;;11.48;;
8777;SDS011;4425;50.872;4.712;2023-06-22T06:19:50;17.77;;;12.02;;
8777;SDS011;4425;50.872;4.712;2023-06-22T06:22:17;20.73;;;12.30;;
8777;SDS011;4425;50.872;4.712;2023-06-22T06:24:46;21.55;;;12.50;;
8777;SDS011;4425;50.872;4.712;2023-06-22T06:27:13;15.55;;;12.23;;
8777;SDS011;4425;50.872;4.712;2023-06-22T06:29:40;18.85;;;11.95;;
8777;SDS011;4425;50.872;4.712;2023-06-22T06:32:08;15.60;;;12.18;;
8777;SDS011;4425;50.872;4.712;2023-06-22T06:34:36;18.65;;;12.40;;
8777;SDS011;4425;50.872;4.712;2023-06-22T06:37:03;13.73;;;12.25;;
8777;SDS011;4425;50.872;4.712;2023-06-22T06:39:30;15.93;;;13.75;;
8777;SDS011;4425;50.872;4.712;2023-06-22T06:41:57;15.07;;;12.90;;
8777;SDS011;4425;50.872;4.712;2023-06-22T06:44:24;15.98;;;12.70;;
8777;SDS011;4425;50.872;4.712;2023-06-22T06:46:51;14.73;;;13.23;;
8777;SDS011;4425;50.872;4.712;2023-06-22T06:49:19;14.57;;;13.13;;
8777;SDS011;4425;50.872;4.712;2023-06-22T06:51:47;26.67;;;14.05;;
8777;SDS011;4425;50.872;4.712;2023-06-22T06:54:15;15.55;;;13.00;;
8777;SDS011;4425;50.872;4.712;2023-06-22T06:56:45;14.40;;;12.40;;
8777;SDS011;4425;50.872;4.712;2023-06-22T06:59:13;17.58;;;13.70;;
8777;SDS011;4425;50.872;4.712;2023-06-22T07:01:40;21.02;;;13.50;;
8777;SDS011;4425;50.872;4.712;2023-06-22T07:04:09;19.17;;;12.88;;
8777;SDS011;4425;50.872;4.712;2023-06-22T07:06:36;14.82;;;12.18;;
8777;SDS011;4425;50.872;4.712;2023-06-22T07:09:05;12.15;;;10.95;;
8777;SDS011;4425;50.872;4.712;2023-06-22T07:11:32;15.57;;;12.65;;
8777;SDS011;4425;50.872;4.712;2023-06-22T07:14:00;12.80;;;10.43;;
8777;SDS011;4425;50.872;4.712;2023-06-22T07:16:27;10.82;;;9.68;;
8777;SDS011;4425;50.872;4.712;2023-06-22T07:18:56;16.10;;;9.45;;
8777;SDS011;4425;50.872;4.712;2023-06-22T07:21:23;14.68;;;9.23;;
8777;SDS011;4425;50.872;4.712;2023-06-22T07:23:50;16.92;;;10.38;;
8777;SDS011;4425;50.872;4.712;2023-06-22T07:26:18;51.25;;;11.10;;
8777;SDS011;4425;50.872;4.712;2023-06-22T07:28:45;14.23;;;9.32;;
8777;SDS011;4425;50.872;4.712;2023-06-22T07:31:13;11.20;;;8.60;;
8777;SDS011;4425;50.872;4.712;2023-06-22T07:33:40;10.52;;;8.23;;
8777;SDS011;4425;50.872;4.712;2023-06-22T07:36:07;13.77;;;9.20;;
8777;SDS011;4425;50.872;4.712;2023-06-22T07:38:34;15.15;;;8.80;;
8777;SDS011;4425;50.872;4.712;2023-06-22T07:41:01;10.45;;;8.35;;
8777;SDS011;4425;50.872;4.712;2023-06-22T07:43:31;10.13;;;8.30;;
8777;SDS011;4425;50.872;4.712;2023-06-22T07:45:59;9.57;;;8.57;;
8777;SDS011;4425;50.872;4.712;2023-06-22T07:48:26;9.68;;;8.13;;
8777;SDS011;4425;50.872;4.712;2023-06-22T07:50:53;10.38;;;8.45;;
8777;SDS011;4425;50.872;4.712;2023-06-22T07:53:20;18.10;;;8.57;;
8777;SDS011;4425;50.872;4.712;2023-06-22T07:55:48;18.77;;;8.25;;
8777;SDS011;4425;50.872;4.712;2023-06-22T07:58:15;15.30;;;8.52;;
8777;SDS011;4425;50.872;4.712;2023-06-22T08:00:45;10.35;;;8.18;;
8777;SDS011;4425;50.872;4.712;2023-06-22T08:03:13;16.35;;;7.97;;
8777;SDS011;4425;50.872;4.712;2023-06-22T08:05:40;8.90;;;8.00;;
8777;SDS011;4425;50.872;4.712;2023-06-22T08:08:07;12.32;;;8.15;;
8777;SDS011;4425;50.872;4.712;2023-06-22T08:10:34;9.15;;;8.02;;
8777;SDS011;4425;50.872;4.712;2023-06-22T08:13:01;8.70;;;7.82;;
8777;SDS011;4425;50.872;4.712;2023-06-22T08:15:28;10.35;;;7.40;;
8777;SDS011;4425;50.872;4.712;2023-06-22T08:17:56;9.55;;;7.70;;
8777;SDS011;4425;50.872;4.712;2023-06-22T08:20:25;8.98;;;8.23;;
8777;SDS011;4425;50.872;4.712;2023-06-22T08:22:53;8.45;;;7.25;;
8777;SDS011;4425;50.872;4.712;2023-06-22T08:25:25;10.15;;;7.85;;
8777;SDS011;4425;50.872;4.712;2023-06-22T08:27:52;8.60;;;7.65;;
8777;SDS011;4425;50.872;4.712;2023-06-22T08:30:19;7.80;;;7.10;;
8777;SDS011;4425;50.872;4.712;2023-06-22T08:32:45;8.90;;;7.72;;
8777;SDS011;4425;50.872;4.712;2023-06-22T08:35:14;9.25;;;7.18;;
8777;SDS011;4425;50.872;4.712;2023-06-22T08:37:41;7.90;;;6.97;;
8777;SDS011;4425;50.872;4.712;2023-06-22T08:40:08;8.25;;;6.88;;
8777;SDS011;4425;50.872;4.712;2023-06-22T08:42:36;10.93;;;6.68;;
8777;SDS011;4425;50.872;4.712;2023-06-22T08:45:03;9.93;;;6.78;;
8777;SDS011;4425;50.872;4.712;2023-06-22T08:47:31;8.27;;;6.32;;
8777;SDS011;4425;50.872;4.712;2023-06-22T08:49:58;12.52;;;6.55;;
8777;SDS011;4425;50.872;4.712;2023-06-22T08:52:28;21.67;;;7.30;;
8777;SDS011;4425;50.872;4.712;2023-06-22T08:54:55;11.73;;;6.40;;
8777;SDS011;4425;50.872;4.712;2023-06-22T08:57:23;7.65;;;6.00;;
8777;SDS011;4425;50.872;4.712;2023-06-22T08:59:50;9.43;;;6.50;;
8777;SDS011;4425;50.872;4.712;2023-06-22T09:02:17;8.70;;;6.20;;
8777;SDS011;4425;50.872;4.712;2023-06-22T09:04:45;19.38;;;7.13;;
8777;SDS011;4425;50.872;4.712;2023-06-22T09:07:12;7.03;;;6.32;;
8777;SDS011;4425;50.872;4.712;2023-06-22T09:09:40;6.90;;;6.30;;
8777;SDS011;4425;50.872;4.712;2023-06-22T09:12:07;8.65;;;6.13;;
8777;SDS011;4425;50.872;4.712;2023-06-22T09:14:35;9.80;;;6.75;;
8777;SDS011;4425;50.872;4.712;2023-06-22T09:17:02;9.13;;;6.43;;
8777;SDS011;4425;50.872;4.712;2023-06-22T09:19:30;8.63;;;6.15;;
8777;SDS011;4425;50.872;4.712;2023-06-22T09:21:56;7.18;;;5.95;;
8777;SDS011;4425;50.872;4.712;2023-06-22T09:24:23;8.82;;;6.30;;
8777;SDS011;4425;50.872;4.712;2023-06-22T09:26:52;7.07;;;6.38;;
8777;SDS011;4425;50.872;4.712;2023-06-22T09:29:19;7.90;;;6.10;;
8777;SDS011;4425;50.872;4.712;2023-06-22T09:31:45;11.13;;;6.20;;
8777;SDS011;4425;50.872;4.712;2023-06-22T09:34:12;7.80;;;6.03;;
8777;SDS011;4425;50.872;4.712;2023-06-22T09:36:40;7.72;;;6.38;;
8777;SDS011;4425;50.872;4.712;2023-06-22T09:39:07;8.07;;;6.28;;
8777;SDS011;4425;50.872;4.712;2023-06-22T09:41:34;6.93;;;6.22;;
8777;SDS011;4425;50.872;4.712;2023-06-22T09:44:03;9.25;;;7.13;;
8777;SDS011;4425;50.872;4.712;2023-06-22T09:46:30;10.32;;;8.18;;
8777;SDS011;4425;50.872;4.712;2023-06-22T09:48:56;11.65;;;8.68;;
8777;SDS011;4425;50.872;4.712;2023-06-22T09:51:23;10.45;;;9.40;;
8777;SDS011;4425;50.872;4.712;2023-06-22T09:53:50;11.70;;;9.77;;
8777;SDS011;4425;50.872;4.712;2023-06-22T09:56:17;17.42;;;10.60;;
8777;SDS011;4425;50.872;4.712;2023-06-22T09:58:44;13.32;;;11.63;;
8777;SDS011;4425;50.872;4.712;2023-06-22T10:01:13;13.05;;;11.85;;
8777;SDS011;4425;50.872;4.712;2023-06-22T10:03:40;14.52;;;13.02;;
8777;SDS011;4425;50.872;4.712;2023-06-22T10:06:07;15.13;;;13.73;;
8777;SDS011;4425;50.872;4.712;2023-06-22T10:08:34;15.35;;;13.75;;
8777;SDS011;4425;50.872;4.712;2023-06-22T10:11:01;18.65;;;14.75;;
8777;SDS011;4425;50.872;4.712;2023-06-22T10:13:29;17.63;;;15.90;;
8777;SDS011;4425;50.872;4.712;2023-06-22T10:15:56;18.35;;;16.42;;
8777;SDS011;4425;50.872;4.712;2023-06-22T10:18:24;20.35;;;16.30;;
8777;SDS011;4425;50.872;4.712;2023-06-22T10:20:51;18.83;;;16.70;;
8777;SDS011;4425;50.872;4.712;2023-06-22T10:23:18;19.02;;;16.65;;
8777;SDS011;4425;50.872;4.712;2023-06-22T10:25:46;19.70;;;17.73;;
8777;SDS011;4425;50.872;4.712;2023-06-22T10:28:13;20.33;;;18.15;;
8777;SDS011;4425;50.872;4.712;2023-06-22T10:30:40;20.63;;;18.33;;
8777;SDS011;4425;50.872;4.712;2023-06-22T10:33:08;22.08;;;19.23;;
8777;SDS011;4425;50.872;4.712;2023-06-22T10:35:36;22.08;;;19.75;;
8777;SDS011;4425;50.872;4.712;2023-06-22T10:38:04;23.25;;;20.63;;
8777;SDS011;4425;50.872;4.712;2023-06-22T10:40:31;23.05;;;20.65;;
8777;SDS011;4425;50.872;4.712;2023-06-22T10:42:58;24.75;;;22.13;;
8777;SDS011;4425;50.872;4.712;2023-06-22T10:45:25;23.88;;;21.48;;
8777;SDS011;4425;50.872;4.712;2023-06-22T10:47:52;24.95;;;21.70;;
8777;SDS011;4425;50.872;4.712;2023-06-22T10:50:19;24.33;;;21.80;;
8777;SDS011;4425;50.872;4.712;2023-06-22T10:52:47;25.13;;;22.50;;
8777;SDS011;4425;50.872;4.712;2023-06-22T10:55:14;27.20;;;23.98;;
8777;SDS011;4425;50.872;4.712;2023-06-22T10:57:41;26.70;;;23.88;;
8777;SDS011;4425;50.872;4.712;2023-06-22T11:00:10;27.58;;;23.25;;
8777;SDS011;4425;50.872;4.712;2023-06-22T11:02:38;27.95;;;23.38;;
8777;SDS011;4425;50.872;4.712;2023-06-22T11:05:05;27.13;;;23.95;;
8777;SDS011;4425;50.872;4.712;2023-06-22T11:07:33;27.85;;;23.95;;
8777;SDS011;4425;50.872;4.712;2023-06-22T11:10:01;28.65;;;25.58;;
8777;SDS011;4425;50.872;4.712;2023-06-22T11:12:28;29.30;;;26.10;;
8777;SDS011;4425;50.872;4.712;2023-06-22T11:14:55;30.27;;;27.00;;
8777;SDS011;4425;50.872;4.712;2023-06-22T11:17:22;30.80;;;26.67;;
8777;SDS011;4425;50.872;4.712;2023-06-22T11:19:50;30.67;;;27.50;;
8777;SDS011;4425;50.872;4.712;2023-06-22T11:22:17;32.08;;;28.27;;
8777;SDS011;4425;50.872;4.712;2023-06-22T11:24:44;31.83;;;28.33;;
8777;SDS011;4425;50.872;4.712;2023-06-22T11:27:12;31.85;;;28.45;;
8777;SDS011;4425;50.872;4.712;2023-06-22T11:29:39;38.03;;;29.00;;
8777;SDS011;4425;50.872;4.712;2023-06-22T11:32:06;33.30;;;29.23;;
8777;SDS011;4425;50.872;4.712;2023-06-22T11:34:33;36.55;;;30.83;;
8777;SDS011;4425;50.872;4.712;2023-06-22T11:37:00;40.63;;;32.45;;
8777;SDS011;4425;50.872;4.712;2023-06-22T11:39:28;39.45;;;31.55;;
8777;SDS011;4425;50.872;4.712;2023-06-22T11:41:54;36.20;;;32.15;;
8777;SDS011;4425;50.872;4.712;2023-06-22T11:44:23;37.45;;;33.45;;
8777;SDS011;4425;50.872;4.712;2023-06-22T11:46:50;39.58;;;33.22;;
8777;SDS011;4425;50.872;4.712;2023-06-22T11:49:17;37.33;;;33.25;;
8777;SDS011;4425;50.872;4.712;2023-06-22T11:51:44;36.83;;;32.72;;
8777;SDS011;4425;50.872;4.712;2023-06-22T11:54:11;38.53;;;33.85;;
8777;SDS011;4425;50.872;4.712;2023-06-22T11:56:38;39.60;;;34.42;;
8777;SDS011;4425;50.872;4.712;2023-06-22T11:59:05;40.17;;;35.63;;
8777;SDS011;4425;50.872;4.712;2023-06-22T12:01:33;39.92;;;34.20;;
8777;SDS011;4425;50.872;4.712;2023-06-22T12:04:00;40.83;;;35.47;;
8777;SDS011;4425;50.872;4.712;2023-06-22T12:06:30;40.28;;;35.13;;
8777;SDS011;4425;50.872;4.712;2023-06-22T12:08:57;45.77;;;36.50;;
8777;SDS011;4425;50.872;4.712;2023-06-22T12:11:24;48.08;;;36.97;;
8777;SDS011;4425;50.872;4.712;2023-06-22T12:13:51;44.80;;;37.05;;
8777;SDS011;4425;50.872;4.712;2023-06-22T12:16:20;42.60;;;37.53;;
8777;SDS011;4425;50.872;4.712;2023-06-22T12:18:49;43.53;;;37.85;;
8777;SDS011;4425;50.872;4.712;2023-06-22T12:21:17;48.10;;;38.50;;
8777;SDS011;4425;50.872;4.712;2023-06-22T12:23:44;47.45;;;38.55;;
8777;SDS011;4425;50.872;4.712;2023-06-22T12:26:11;49.53;;;40.28;;
8777;SDS011;4425;50.872;4.712;2023-06-22T12:28:38;47.20;;;38.90;;
8777;SDS011;4425;50.872;4.712;2023-06-22T12:31:06;47.70;;;39.42;;
8777;SDS011;4425;50.872;4.712;2023-06-22T12:33:33;48.97;;;40.33;;
8777;SDS011;4425;50.872;4.712;2023-06-22T12:36:02;52.63;;;40.17;;
8777;SDS011;4425;50.872;4.712;2023-06-22T12:38:30;50.92;;;41.60;;
8777;SDS011;4425;50.872;4.712;2023-06-22T12:40:57;50.67;;;40.23;;
8777;SDS011;4425;50.872;4.712;2023-06-22T12:43:24;53.37;;;43.27;;
8777;SDS011;4425;50.872;4.712;2023-06-22T12:45:51;52.73;;;42.50;;
8777;SDS011;4425;50.872;4.712;2023-06-22T12:48:18;52.13;;;41.80;;
8777;SDS011;4425;50.872;4.712;2023-06-22T12:50:46;52.72;;;41.72;;
8777;SDS011;4425;50.872;4.712;2023-06-22T12:53:16;54.10;;;44.10;;
8777;SDS011;4425;50.872;4.712;2023-06-22T12:55:43;52.53;;;42.13;;
8777;SDS011;4425;50.872;4.712;2023-06-22T12:58:10;52.73;;;42.67;;
8777;SDS011;4425;50.872;4.712;2023-06-22T13:00:38;54.58;;;42.33;;
8777;SDS011;4425;50.872;4.712;2023-06-22T13:03:06;54.70;;;42.20;;
8777;SDS011;4425;50.872;4.712;2023-06-22T13:05:33;53.30;;;43.05;;
8777;SDS011;4425;50.872;4.712;2023-06-22T13:08:01;52.97;;;44.17;;
8777;SDS011;4425;50.872;4.712;2023-06-22T13:10:30;53.15;;;42.33;;
8777;SDS011;4425;50.872;4.712;2023-06-22T13:12:57;51.17;;;43.25;;
8777;SDS011;4425;50.872;4.712;2023-06-22T13:15:26;53.30;;;43.53;;
8777;SDS011;4425;50.872;4.712;2023-06-22T13:17:53;53.20;;;43.87;;
8777;SDS011;4425;50.872;4.712;2023-06-22T13:20:21;53.77;;;44.63;;
8777;SDS011;4425;50.872;4.712;2023-06-22T13:22:48;56.95;;;44.22;;
8777;SDS011;4425;50.872;4.712;2023-06-22T13:25:16;54.95;;;43.88;;
8777;SDS011;4425;50.872;4.712;2023-06-22T13:27:46;53.38;;;43.15;;
8777;SDS011;4425;50.872;4.712;2023-06-22T13:30:14;54.03;;;42.95;;
8777;SDS011;4425;50.872;4.712;2023-06-22T13:32:42;58.47;;;43.50;;
8777;SDS011;4425;50.872;4.712;2023-06-22T13:35:10;61.88;;;45.30;;
8777;SDS011;4425;50.872;4.712;2023-06-22T13:37:38;57.72;;;44.33;;
8777;SDS011;4425;50.872;4.712;2023-06-22T13:40:06;60.10;;;46.72;;
8777;SDS011;4425;50.872;4.712;2023-06-22T13:42:33;56.17;;;46.22;;
8777;SDS011;4425;50.872;4.712;2023-06-22T13:45:03;57.92;;;45.85;;
8777;SDS011;4425;50.872;4.712;2023-06-22T13:47:31;64.60;;;46.72;;
8777;SDS011;4425;50.872;4.712;2023-06-22T13:49:59;54.88;;;45.83;;
8777;SDS011;4425;50.872;4.712;2023-06-22T13:52:30;59.22;;;48.72;;
8777;SDS011;4425;50.872;4.712;2023-06-22T13:54:58;60.23;;;47.67;;
8777;SDS011;4425;50.872;4.712;2023-06-22T13:57:25;61.50;;;47.25;;
8777;SDS011;4425;50.872;4.712;2023-06-22T13:59:52;59.97;;;48.03;;
8777;SDS011;4425;50.872;4.712;2023-06-22T14:02:21;58.65;;;46.42;;
8777;SDS011;4425;50.872;4.712;2023-06-22T14:04:49;55.60;;;46.05;;
8777;SDS011;4425;50.872;4.712;2023-06-22T14:07:16;57.13;;;44.70;;
8777;SDS011;4425;50.872;4.712;2023-06-22T14:09:44;64.25;;;44.95;;
8777;SDS011;4425;50.872;4.712;2023-06-22T14:12:12;57.53;;;46.22;;
8777;SDS011;4425;50.872;4.712;2023-06-22T14:14:39;54.63;;;44.90;;
8777;SDS011;4425;50.872;4.712;2023-06-22T14:17:08;59.03;;;44.50;;
8777;SDS011;4425;50.872;4.712;2023-06-22T14:19:39;52.28;;;43.45;;
8777;SDS011;4425;50.872;4.712;2023-06-22T14:22:06;53.67;;;43.83;;
8777;SDS011;4425;50.872;4.712;2023-06-22T14:24:34;53.13;;;43.95;;
8777;SDS011;4425;50.872;4.712;2023-06-22T14:27:01;49.17;;;42.45;;
8777;SDS011;4425;50.872;4.712;2023-06-22T14:29:32;52.63;;;41.25;;
8777;SDS011;4425;50.872;4.712;2023-06-22T14:32:00;50.20;;;41.95;;
8777;SDS011;4425;50.872;4.712;2023-06-22T14:34:27;51.45;;;42.42;;
8777;SDS011;4425;50.872;4.712;2023-06-22T14:36:56;50.67;;;43.65;;
8777;SDS011;4425;50.872;4.712;2023-06-22T14:39:25;49.60;;;42.10;;
8777;SDS011;4425;50.872;4.712;2023-06-22T14:41:53;54.83;;;43.10;;
8777;SDS011;4425;50.872;4.712;2023-06-22T14:44:20;45.83;;;40.15;;
8777;SDS011;4425;50.872;4.712;2023-06-22T14:46:48;46.67;;;40.33;;
8777;SDS011;4425;50.872;4.712;2023-06-22T14:49:15;49.58;;;40.67;;
8777;SDS011;4425;50.872;4.712;2023-06-22T14:51:42;51.87;;;42.47;;
8777;SDS011;4425;50.872;4.712;2023-06-22T14:54:11;49.17;;;42.83;;
8777;SDS011;4425;50.872;4.712;2023-06-22T14:56:38;47.37;;;40.43;;
8777;SDS011;4425;50.872;4.712;2023-06-22T14:59:05;45.20;;;38.63;;
8777;SDS011;4425;50.872;4.712;2023-06-22T15:01:33;48.08;;;39.78;;